Time;durP1;ratioP1;P1;durP2;ratioP2;P2;SDS_P1;SDS_P2;PMS_P1;PMS_P2;Temp;Humidity;BMP_temperature;BMP_pressure;BME280_temperature;BME280_humidity;BME280_pressure;Samples;Min_cycle;Max_cycle;Signal;HPM_P1;HPM_P2
2022/11/06 00:00:24;;;;;;;36.50;14.50;;;;;;;;;;106731;1307;22051;-77
2022/11/06 00:02:59;;;;;;;35.00;14.40;;;;;;;;;;106757;1307;22034;-77
2022/11/06 00:08:11;;;;;;;30.10;13.10;;;;;;;;;;106704;1307;22074;-77
2022/11/06 00:10:38;;;;;;;25.30;12.00;;;;;;;;;;106693;1302;22139;-78
2022/11/06 00:13:05;;;;;;;26.80;11.40;;;;;;;;;;106652;1308;23244;-77
2022/11/06 00:15:33;;;;;;;27.50;10.80;;;;;;;;;;106661;1310;21949;-78
2022/11/06 00:18:00;;;;;;;31.20;10.90;;;;;;;;;;106685;1309;21956;-78
2022/11/06 00:20:26;;;;;;;28.70;11.20;;;;;;;;;;106670;1310;22879;-77
2022/11/06 00:22:53;;;;;;;26.90;9.20;;;;;;;;;;106632;1307;22487;-77
2022/11/06 00:25:19;;;;;;;20.30;7.30;;;;;;;;;;106623;1309;22515;-77
2022/11/06 00:27:47;;;;;;;18.80;7.90;;;;;;;;;;106585;1310;22118;-77
2022/11/06 00:30:13;;;;;;;16.20;6.60;;;;;;;;;;106650;1310;22179;-77
2022/11/06 00:32:40;;;;;;;15.20;6.50;;;;;;;;;;106553;1311;22764;-77
2022/11/06 00:35:07;;;;;;;13.80;6.00;;;;;;;;;;106592;1311;22111;-77
2022/11/06 00:37:34;;;;;;;15.90;5.70;;;;;;;;;;106603;1305;22110;-77
2022/11/06 00:40:01;;;;;;;14.30;4.90;;;;;;;;;;106731;1309;22851;-77
2022/11/06 00:42:28;;;;;;;16.00;5.60;;;;;;;;;;106925;1303;21957;-77
2022/11/06 00:44:55;;;;;;;14.10;5.20;;;;;;;;;;106676;1309;22127;-77
2022/11/06 00:47:21;;;;;;;18.50;6.30;;;;;;;;;;106643;1310;21713;-77
2022/11/06 00:49:48;;;;;;;16.40;6.40;;;;;;;;;;106521;1310;22123;-77
2022/11/06 00:52:16;;;;;;;14.70;6.40;;;;;;;;;;106680;1309;22057;-77
2022/11/06 00:54:42;;;;;;;14.80;6.10;;;;;;;;;;106630;1306;22090;-77
2022/11/06 00:57:10;;;;;;;16.20;6.60;;;;;;;;;;106594;1309;22131;-77
2022/11/06 00:59:36;;;;;;;18.40;6.70;;;;;;;;;;106699;1309;22074;-77
2022/11/06 01:02:03;;;;;;;13.90;5.90;;;;;;;;;;106774;1288;22494;-77
2022/11/06 01:04:30;;;;;;;15.90;6.00;;;;;;;;;;106644;1310;22086;-77
2022/11/06 01:06:58;;;;;;;17.70;6.40;;;;;;;;;;106603;1309;22667;-77
2022/11/06 01:09:26;;;;;;;18.10;7.60;;;;;;;;;;106572;1310;22825;-77
2022/11/06 01:11:57;;;;;;;42.70;13.20;;;;;;;;;;106594;1304;22055;-77
2022/11/06 01:14:25;;;;;;;45.00;14.50;;;;;;;;;;106540;1311;22667;-77
2022/11/06 01:16:52;;;;;;;34.50;11.70;;;;;;;;;;106710;1300;22100;-77
2022/11/06 01:19:21;;;;;;;26.20;10.60;;;;;;;;;;106545;1309;22145;-77
2022/11/06 01:21:51;;;;;;;20.20;7.60;;;;;;;;;;106547;1310;22161;-77
2022/11/06 01:24:21;;;;;;;24.40;8.70;;;;;;;;;;106609;1308;22018;-77
2022/11/06 01:26:50;;;;;;;27.20;9.50;;;;;;;;;;106702;1302;22058;-77
2022/11/06 01:29:19;;;;;;;26.50;9.30;;;;;;;;;;106551;1311;22739;-77
2022/11/06 01:31:49;;;;;;;34.60;9.80;;;;;;;;;;106535;1312;21931;-77
2022/11/06 01:34:18;;;;;;;29.60;8.70;;;;;;;;;;106598;1311;21985;-77
2022/11/06 01:36:47;;;;;;;22.60;7.50;;;;;;;;;;106551;1312;22047;-77
2022/11/06 01:39:15;;;;;;;17.90;7.60;;;;;;;;;;106563;1310;22927;-77
2022/11/06 01:41:44;;;;;;;17.40;6.60;;;;;;;;;;106590;1310;22057;-77
2022/11/06 01:44:30;;;;;;;19.50;6.80;;;;;;;;;;106586;1307;22042;-77
2022/11/06 01:46:58;;;;;;;19.30;7.30;;;;;;;;;;106698;1301;22212;-77
2022/11/06 01:49:28;;;;;;;17.10;6.70;;;;;;;;;;106546;1312;22096;-77
2022/11/06 01:52:00;;;;;;;21.00;6.50;;;;;;;;;;106355;1312;22925;-77
2022/11/06 01:54:30;;;;;;;19.30;6.60;;;;;;;;;;106458;1312;22055;-77
2022/11/06 01:56:58;;;;;;;23.40;7.90;;;;;;;;;;106570;1312;22858;-77
2022/11/06 01:59:28;;;;;;;16.50;6.60;;;;;;;;;;106477;1310;22056;-77
2022/11/06 02:01:55;;;;;;;22.50;8.00;;;;;;;;;;106610;1309;22892;-77
2022/11/06 02:04:24;;;;;;;26.60;10.00;;;;;;;;;;106609;1310;22096;-77
2022/11/06 02:06:51;;;;;;;21.20;8.80;;;;;;;;;;106559;1310;22064;-77
2022/11/06 02:09:18;;;;;;;22.20;9.70;;;;;;;;;;106513;1312;22095;-77
2022/11/06 02:11:50;;;;;;;23.30;8.30;;;;;;;;;;106560;1312;22085;-77
2022/11/06 02:14:34;;;;;;;20.60;8.20;;;;;;;;;;106307;1312;22180;-77
2022/11/06 02:17:15;;;;;;;22.70;7.50;;;;;;;;;;106450;1313;22068;-77
2022/11/06 02:19:52;;;;;;;21.00;7.70;;;;;;;;;;106373;1305;22160;-77
2022/11/06 02:22:41;;;;;;;23.10;8.30;;;;;;;;;;106593;1304;22757;-77
2022/11/06 02:25:15;;;;;;;23.50;7.30;;;;;;;;;;106695;1309;22056;-77
2022/11/06 02:27:54;;;;;;;19.20;7.60;;;;;;;;;;106696;1309;22087;-77
2022/11/06 02:30:23;;;;;;;19.80;6.50;;;;;;;;;;106468;1312;22693;-77
2022/11/06 02:33:00;;;;;;;16.30;7.00;;;;;;;;;;106351;1312;22134;-77
2022/11/06 02:35:31;;;;;;;18.00;6.70;;;;;;;;;;106349;1312;22086;-77
2022/11/06 02:38:05;;;;;;;15.20;6.40;;;;;;;;;;106501;1312;22080;-76
2022/11/06 02:40:34;;;;;;;13.30;5.90;;;;;;;;;;106545;1309;22075;-76
2022/11/06 02:43:05;;;;;;;16.90;5.90;;;;;;;;;;106607;1310;22541;-77
2022/11/06 02:45:44;;;;;;;16.50;6.30;;;;;;;;;;106598;1310;21975;-77
2022/11/06 02:48:16;;;;;;;12.30;4.40;;;;;;;;;;106603;1309;22083;-76
2022/11/06 02:50:45;;;;;;;14.00;6.30;;;;;;;;;;106414;1307;22770;-77
2022/11/06 02:53:16;;;;;;;14.90;6.10;;;;;;;;;;106488;1312;22077;-77
2022/11/06 02:55:46;;;;;;;15.20;6.10;;;;;;;;;;106513;1312;22105;-76
2022/11/06 02:58:20;;;;;;;17.10;6.80;;;;;;;;;;106590;1312;22061;-76
2022/11/06 03:00:52;;;;;;;17.30;6.90;;;;;;;;;;106482;1310;22101;-76
2022/11/06 03:03:24;;;;;;;19.80;7.00;;;;;;;;;;106615;1309;22044;-76
2022/11/06 03:05:56;;;;;;;20.20;7.20;;;;;;;;;;106518;1310;22064;-76
2022/11/06 03:08:27;;;;;;;17.70;6.80;;;;;;;;;;106549;1309;22128;-76
2022/11/06 03:11:15;;;;;;;12.80;5.40;;;;;;;;;;106533;1312;22786;-77
2022/11/06 03:20:21;;;;;;;16.40;5.50;;;;;;;;;;100685;1336;544991;-84
2022/11/06 03:22:54;;;;;;;17.80;5.10;;;;;;;;;;102480;1293;25457;-80
2022/11/06 03:25:24;;;;;;;13.00;4.90;;;;;;;;;;102573;1319;22514;-82
2022/11/06 03:27:57;;;;;;;15.10;5.50;;;;;;;;;;102617;1317;25306;-82
2022/11/06 03:30:23;;;;;;;14.20;5.30;;;;;;;;;;102595;1316;22505;-83
2022/11/06 03:32:58;;;;;;;14.40;5.00;;;;;;;;;;102334;1319;184624;-82
2022/11/06 03:35:31;;;;;;;13.40;5.50;;;;;;;;;;103108;1305;24761;-81
2022/11/06 03:37:58;;;;;;;16.10;5.50;;;;;;;;;;103284;1310;22463;-80
2022/11/06 03:40:26;;;;;;;17.80;5.60;;;;;;;;;;103418;1308;22659;-84
2022/11/06 03:42:55;;;;;;;18.70;6.80;;;;;;;;;;103449;1307;22631;-78
2022/11/06 03:45:23;;;;;;;15.70;5.70;;;;;;;;;;103529;1302;25266;-81
2022/11/06 03:47:57;;;;;;;12.90;5.00;;;;;;;;;;103443;1307;22824;-82
2022/11/06 03:50:24;;;;;;;16.00;5.20;;;;;;;;;;103671;1278;24266;-84
2022/11/06 03:53:02;;;;;;;12.10;4.30;;;;;;;;;;103768;1303;25430;-82
2022/11/06 03:55:32;;;;;;;11.20;4.10;;;;;;;;;;103524;1304;22532;-84
2022/11/06 03:58:07;;;;;;;13.40;4.10;;;;;;;;;;103508;1298;25314;-81
2022/11/06 04:00:35;;;;;;;10.60;3.70;;;;;;;;;;103655;1303;24671;-80
2022/11/06 04:03:06;;;;;;;12.70;3.50;;;;;;;;;;103786;1297;22474;-79
2022/11/06 04:05:34;;;;;;;10.60;3.30;;;;;;;;;;103550;1303;22549;-77
2022/11/06 04:16:22;;;;;;;14.00;3.60;;;;;;;;;;103650;1304;24192;-83
2022/11/06 04:18:49;;;;;;;10.40;4.00;;;;;;;;;;103529;1306;22465;-80
2022/11/06 04:21:29;;;;;;;17.80;5.80;;;;;;;;;;103529;1303;22610;-79
2022/11/06 04:27:00;;;;;;;21.30;8.20;;;;;;;;;;103611;1303;25215;-78
2022/11/06 04:29:47;;;;;;;19.70;7.20;;;;;;;;;;103547;1303;26539;-79
2022/11/06 04:32:21;;;;;;;15.50;5.70;;;;;;;;;;103629;1304;22468;-84
2022/11/06 04:34:54;;;;;;;16.40;4.90;;;;;;;;;;103567;1307;22590;-81
2022/11/06 04:37:27;;;;;;;19.60;5.70;;;;;;;;;;103798;1303;25298;-82
2022/11/06 04:40:12;;;;;;;17.00;4.90;;;;;;;;;;103506;1298;22612;-84
2022/11/06 04:42:45;;;;;;;11.10;3.70;;;;;;;;;;103590;1304;22506;-78
2022/11/06 04:45:16;;;;;;;12.30;3.50;;;;;;;;;;103620;1304;22718;-82
2022/11/06 04:47:44;;;;;;;11.10;3.40;;;;;;;;;;103806;1297;22714;-82
2022/11/06 04:50:11;;;;;;;10.00;3.70;;;;;;;;;;103801;1303;22486;-79
2022/11/06 04:52:38;;;;;;;10.50;3.40;;;;;;;;;;103485;1303;24436;-81
2022/11/06 04:55:05;;;;;;;12.30;3.40;;;;;;;;;;103771;1303;25536;-81
2022/11/06 04:57:32;;;;;;;13.10;3.40;;;;;;;;;;103576;1301;22715;-80
2022/11/06 05:00:01;;;;;;;12.20;3.60;;;;;;;;;;103740;1303;23061;-82
2022/11/06 05:02:28;;;;;;;11.00;3.50;;;;;;;;;;103502;1303;22463;-78
2022/11/06 05:04:54;;;;;;;14.00;3.80;;;;;;;;;;103768;1303;22509;-82
2022/11/06 05:07:21;;;;;;;13.60;3.60;;;;;;;;;;103522;1303;24337;-78
2022/11/06 05:09:48;;;;;;;10.30;2.70;;;;;;;;;;103771;1303;22594;-79
2022/11/06 05:12:14;;;;;;;11.60;2.80;;;;;;;;;;103494;1304;23925;-78
2022/11/06 05:14:41;;;;;;;8.00;2.20;;;;;;;;;;103551;1307;22448;-82
2022/11/06 05:17:07;;;;;;;8.90;2.40;;;;;;;;;;103486;1307;25573;-79
2022/11/06 05:19:34;;;;;;;9.20;2.40;;;;;;;;;;103755;1304;22460;-83
2022/11/06 05:24:46;;;;;;;9.80;2.40;;;;;;;;;;103568;1303;22726;-78
2022/11/06 05:27:13;;;;;;;8.20;2.60;;;;;;;;;;103535;1306;24251;-83
2022/11/06 05:29:39;;;;;;;10.80;2.80;;;;;;;;;;103753;1303;22464;-78
2022/11/06 05:32:06;;;;;;;8.10;2.70;;;;;;;;;;103484;1307;25249;-79
2022/11/06 05:34:32;;;;;;;10.00;2.60;;;;;;;;;;103539;1307;25204;-80
2022/11/06 05:36:59;;;;;;;11.70;2.40;;;;;;;;;;103498;1304;24412;-81
2022/11/06 05:39:26;;;;;;;7.90;2.30;;;;;;;;;;103544;1304;25320;-79
2022/11/06 05:41:52;;;;;;;7.10;2.70;;;;;;;;;;103499;1302;24006;-82
2022/11/06 05:44:19;;;;;;;10.40;3.00;;;;;;;;;;103407;1309;24271;-79
2022/11/06 05:46:46;;;;;;;8.70;2.80;;;;;;;;;;103478;1309;25539;-84
2022/11/06 05:49:12;;;;;;;10.80;4.30;;;;;;;;;;103730;1306;22507;-83
2022/11/06 05:51:39;;;;;;;13.40;4.80;;;;;;;;;;103750;1298;24311;-78
2022/11/06 05:54:05;;;;;;;11.00;4.60;;;;;;;;;;103497;1306;22469;-79
2022/11/06 05:56:32;;;;;;;11.90;4.70;;;;;;;;;;103496;1307;25477;-82
2022/11/06 05:58:59;;;;;;;9.40;3.80;;;;;;;;;;103712;1306;25316;-80
2022/11/06 06:01:26;;;;;;;10.30;3.60;;;;;;;;;;103514;1304;22457;-79
2022/11/06 06:03:53;;;;;;;13.00;5.00;;;;;;;;;;103696;1307;25281;-80
2022/11/06 06:06:20;;;;;;;14.10;5.30;;;;;;;;;;103448;1310;25639;-81
2022/11/06 06:08:46;;;;;;;14.80;4.70;;;;;;;;;;103525;1310;22508;-78
2022/11/06 06:11:13;;;;;;;11.30;4.80;;;;;;;;;;103497;1310;25266;-78
2022/11/06 06:13:39;;;;;;;13.30;5.30;;;;;;;;;;103531;1304;26470;-79
2022/11/06 06:16:06;;;;;;;14.40;5.60;;;;;;;;;;103515;1307;22475;-84
2022/11/06 06:18:33;;;;;;;14.60;6.20;;;;;;;;;;103534;1304;25536;-82
2022/11/06 06:20:59;;;;;;;17.80;6.40;;;;;;;;;;103368;1304;25314;-77
2022/11/06 06:23:26;;;;;;;18.30;6.00;;;;;;;;;;103501;1307;22465;-82
2022/11/06 06:25:53;;;;;;;16.70;6.20;;;;;;;;;;103524;1304;22469;-80
2022/11/06 06:28:19;;;;;;;16.60;6.30;;;;;;;;;;103499;1307;22598;-81
2022/11/06 06:30:46;;;;;;;20.20;7.50;;;;;;;;;;103519;1306;22478;-78
2022/11/06 06:33:13;;;;;;;15.80;6.50;;;;;;;;;;103500;1306;22821;-83
2022/11/06 06:35:39;;;;;;;16.00;7.30;;;;;;;;;;103731;1302;24292;-79
2022/11/06 06:38:06;;;;;;;19.00;7.50;;;;;;;;;;103325;1303;22467;-80
2022/11/06 06:40:33;;;;;;;18.40;7.00;;;;;;;;;;103438;1308;22464;-78
2022/11/06 06:42:59;;;;;;;21.30;6.30;;;;;;;;;;103491;1310;22525;-83
2022/11/06 06:45:26;;;;;;;13.40;4.90;;;;;;;;;;103262;1310;22598;-81
2022/11/06 06:47:53;;;;;;;9.80;3.70;;;;;;;;;;103430;1306;22482;-82
2022/11/06 06:50:19;;;;;;;13.70;3.80;;;;;;;;;;103455;1309;22451;-81
2022/11/06 06:52:46;;;;;;;12.60;4.30;;;;;;;;;;103692;1310;25394;-79
2022/11/06 06:55:13;;;;;;;13.00;4.10;;;;;;;;;;104001;1304;21771;-82
2022/11/06 06:57:39;;;;;;;11.20;4.30;;;;;;;;;;103511;1310;22507;-81
2022/11/06 07:00:07;;;;;;;14.50;4.50;;;;;;;;;;103523;1303;22446;-81
2022/11/06 07:02:33;;;;;;;19.00;4.80;;;;;;;;;;103485;1308;22470;-84
2022/11/06 07:05:00;;;;;;;13.60;3.90;;;;;;;;;;103338;1310;22470;-79
2022/11/06 07:07:27;;;;;;;12.70;4.50;;;;;;;;;;103529;1289;24227;-81
2022/11/06 07:09:54;;;;;;;13.40;4.20;;;;;;;;;;103497;1307;25537;-83
2022/11/06 07:12:21;;;;;;;13.30;4.00;;;;;;;;;;103530;1310;23242;-82
2022/11/06 07:14:48;;;;;;;11.60;4.10;;;;;;;;;;103468;1308;24029;-81
2022/11/06 07:17:14;;;;;;;12.70;3.90;;;;;;;;;;103498;1311;25343;-83
2022/11/06 07:19:41;;;;;;;12.50;3.90;;;;;;;;;;103554;1307;24039;-78
2022/11/06 07:22:07;;;;;;;13.60;3.70;;;;;;;;;;103495;1306;24330;-79
2022/11/06 07:24:34;;;;;;;12.50;4.30;;;;;;;;;;103481;1310;22463;-80
2022/11/06 07:27:00;;;;;;;13.00;4.00;;;;;;;;;;103417;1307;24011;-78
2022/11/06 07:29:27;;;;;;;11.70;4.50;;;;;;;;;;103482;1307;22566;-84
2022/11/06 07:31:54;;;;;;;13.00;4.40;;;;;;;;;;103498;1310;24314;-83
2022/11/06 07:34:20;;;;;;;10.90;3.70;;;;;;;;;;103482;1297;25245;-82
2022/11/06 07:36:47;;;;;;;12.70;3.40;;;;;;;;;;103499;1307;22532;-83
2022/11/06 07:39:14;;;;;;;13.40;4.00;;;;;;;;;;103729;1304;25322;-79
2022/11/06 07:41:40;;;;;;;13.80;3.80;;;;;;;;;;103551;1295;22453;-82
2022/11/06 07:44:07;;;;;;;15.00;3.70;;;;;;;;;;103503;1296;24257;-79
2022/11/06 07:46:34;;;;;;;12.30;3.90;;;;;;;;;;103577;1290;22461;-79
2022/11/06 07:49:00;;;;;;;14.60;4.30;;;;;;;;;;103789;1279;22479;-77
2022/11/06 07:51:27;;;;;;;16.00;4.60;;;;;;;;;;103535;1288;22451;-79
2022/11/06 07:53:54;;;;;;;15.00;4.00;;;;;;;;;;103527;1294;25242;-79
2022/11/06 07:56:20;;;;;;;17.80;4.80;;;;;;;;;;103489;1289;22454;-79
2022/11/06 07:58:47;;;;;;;18.90;5.50;;;;;;;;;;103589;1285;22462;-80
2022/11/06 08:01:15;;;;;;;19.20;5.60;;;;;;;;;;103720;1282;22502;-81
2022/11/06 08:03:43;;;;;;;18.70;6.30;;;;;;;;;;103745;1275;23873;-81
2022/11/06 08:06:10;;;;;;;18.90;6.00;;;;;;;;;;103722;1288;22455;-79
2022/11/06 08:08:38;;;;;;;19.00;6.00;;;;;;;;;;103541;1292;24516;-79
2022/11/06 08:11:05;;;;;;;18.60;6.40;;;;;;;;;;103495;1289;22475;-80
2022/11/06 08:13:35;;;;;;;20.80;6.60;;;;;;;;;;103487;1302;22739;-82
2022/11/06 08:16:02;;;;;;;15.30;5.70;;;;;;;;;;103715;1288;25284;-83
2022/11/06 08:18:29;;;;;;;16.90;6.20;;;;;;;;;;103425;1304;22594;-85
2022/11/06 08:20:56;;;;;;;19.10;5.90;;;;;;;;;;103484;1304;25464;-78
2022/11/06 08:23:22;;;;;;;16.80;6.70;;;;;;;;;;103523;1304;22465;-81
2022/11/06 08:25:52;;;;;;;16.20;6.30;;;;;;;;;;103443;1307;23899;-83
2022/11/06 08:28:19;;;;;;;20.80;7.50;;;;;;;;;;103539;1298;22466;-79
2022/11/06 08:30:45;;;;;;;15.20;6.00;;;;;;;;;;103756;1295;24736;-79
2022/11/06 08:33:12;;;;;;;14.50;5.90;;;;;;;;;;103693;1307;24819;-80
2022/11/06 08:35:39;;;;;;;13.90;5.50;;;;;;;;;;103213;1307;22475;-84
2022/11/06 08:38:05;;;;;;;14.60;6.10;;;;;;;;;;103467;1307;25256;-83
2022/11/06 08:40:32;;;;;;;14.70;5.00;;;;;;;;;;103845;1304;22481;-82
2022/11/06 08:42:59;;;;;;;12.30;4.40;;;;;;;;;;103747;1304;22526;-80
2022/11/06 08:45:26;;;;;;;12.90;4.50;;;;;;;;;;103749;1306;22597;-84
2022/11/06 08:47:53;;;;;;;13.80;5.20;;;;;;;;;;103610;1304;24269;-79
2022/11/06 08:50:19;;;;;;;12.60;3.90;;;;;;;;;;103321;1307;22476;-79
2022/11/06 08:52:46;;;;;;;11.50;3.80;;;;;;;;;;103731;1307;24318;-85
2022/11/06 08:55:13;;;;;;;10.40;3.20;;;;;;;;;;103488;1307;22491;-80
2022/11/06 08:57:39;;;;;;;11.80;3.90;;;;;;;;;;103821;1304;22430;-86
2022/11/06 09:00:06;;;;;;;12.10;4.20;;;;;;;;;;103596;1285;25305;-78
2022/11/06 09:02:33;;;;;;;12.30;4.10;;;;;;;;;;103506;1283;25498;-81
2022/11/06 09:04:59;;;;;;;10.70;3.90;;;;;;;;;;103521;1285;25250;-80
2022/11/06 09:07:26;;;;;;;9.60;3.40;;;;;;;;;;103355;1310;22473;-85
2022/11/06 09:09:52;;;;;;;10.20;3.50;;;;;;;;;;103491;1304;24490;-79
2022/11/06 09:12:19;;;;;;;9.80;3.40;;;;;;;;;;103361;1307;22457;-80
2022/11/06 09:14:46;;;;;;;12.70;3.20;;;;;;;;;;103518;1299;22469;-85
2022/11/06 09:17:12;;;;;;;10.50;3.30;;;;;;;;;;103446;1306;24400;-82
2022/11/06 09:19:39;;;;;;;13.90;3.80;;;;;;;;;;103460;1307;22661;-82
2022/11/06 09:22:06;;;;;;;10.20;3.40;;;;;;;;;;103455;1306;22420;-85
2022/11/06 09:24:33;;;;;;;11.20;3.60;;;;;;;;;;103466;1306;22510;-79
2022/11/06 09:26:59;;;;;;;11.40;3.70;;;;;;;;;;103515;1306;24280;-81
2022/11/06 09:29:26;;;;;;;12.00;3.70;;;;;;;;;;103520;1307;24285;-82
2022/11/06 09:31:53;;;;;;;11.10;3.80;;;;;;;;;;103430;1307;22562;-78
2022/11/06 09:34:20;;;;;;;11.00;3.30;;;;;;;;;;103480;1306;22604;-85
2022/11/06 09:36:46;;;;;;;10.30;3.40;;;;;;;;;;103483;1307;24248;-81
2022/11/06 09:39:13;;;;;;;10.20;3.30;;;;;;;;;;103537;1306;22461;-82
2022/11/06 09:41:46;;;;;;;12.20;3.20;;;;;;;;;;103595;1307;22525;-79
2022/11/06 09:44:31;;;;;;;12.00;3.10;;;;;;;;;;103721;1304;25279;-82
2022/11/06 09:46:59;;;;;;;10.60;3.20;;;;;;;;;;103469;1298;24308;-84
2022/11/06 09:49:37;;;;;;;10.00;3.20;;;;;;;;;;103511;1295;24427;-80
2022/11/06 09:52:11;;;;;;;9.40;3.20;;;;;;;;;;103466;1306;25527;-82
2022/11/06 09:54:40;;;;;;;12.00;3.80;;;;;;;;;;103459;1307;25342;-82
2022/11/06 09:57:15;;;;;;;8.90;2.80;;;;;;;;;;103494;1306;25208;-82
2022/11/06 09:59:43;;;;;;;9.30;2.90;;;;;;;;;;103521;1306;22585;-79
2022/11/06 10:09:22;;;;;;;11.20;4.10;;;;;;;;;;100195;1344;547731;-83
2022/11/06 10:12:04;;;;;;;11.00;3.80;;;;;;;;;;102495;1320;23080;-82
2022/11/06 10:14:39;;;;;;;10.50;3.40;;;;;;;;;;102499;1318;22428;-80
2022/11/06 10:17:05;;;;;;;9.90;2.80;;;;;;;;;;102431;1319;25507;-83
2022/11/06 10:19:47;;;;;;;9.90;3.00;;;;;;;;;;102538;1319;22496;-83
2022/11/06 10:22:15;;;;;;;12.90;3.70;;;;;;;;;;102496;1317;185842;-84
2022/11/06 10:24:45;;;;;;;9.50;3.30;;;;;;;;;;102637;1317;25275;-81
2022/11/06 10:27:22;;;;;;;10.70;3.20;;;;;;;;;;102559;1319;25244;-83
2022/11/06 10:30:03;;;;;;;10.80;3.10;;;;;;;;;;102704;1309;22470;-81
2022/11/06 10:32:32;;;;;;;11.00;3.60;;;;;;;;;;102886;1317;24257;-82
2022/11/06 10:35:04;;;;;;;11.70;4.00;;;;;;;;;;102806;1316;24418;-82
2022/11/06 10:37:38;;;;;;;10.50;3.60;;;;;;;;;;102726;1306;23135;-79
2022/11/06 10:40:05;;;;;;;10.60;3.60;;;;;;;;;;102646;1316;25258;-83
2022/11/06 10:42:35;;;;;;;10.10;3.10;;;;;;;;;;102681;1316;22497;-85
2022/11/06 10:45:17;;;;;;;11.30;3.30;;;;;;;;;;103182;1313;22529;-78
2022/11/06 10:47:48;;;;;;;11.40;2.70;;;;;;;;;;102985;1313;24369;-84
2022/11/06 10:50:15;;;;;;;9.80;2.50;;;;;;;;;;103156;1310;22588;-86
2022/11/06 10:52:44;;;;;;;9.10;3.00;;;;;;;;;;103040;1310;25320;-79
2022/11/06 10:55:22;;;;;;;9.40;2.60;;;;;;;;;;103141;1310;24367;-81
2022/11/06 10:57:51;;;;;;;10.30;2.80;;;;;;;;;;103080;1305;22826;-81
2022/11/06 11:00:17;;;;;;;10.10;2.60;;;;;;;;;;103111;1310;25318;-78
2022/11/06 11:02:45;;;;;;;7.50;2.20;;;;;;;;;;102898;1313;22462;-79
2022/11/06 11:05:13;;;;;;;12.70;3.40;;;;;;;;;;102856;1314;24615;-84
2022/11/06 11:07:39;;;;;;;11.40;2.20;;;;;;;;;;102928;1313;22470;-80
2022/11/06 11:10:24;;;;;;;8.00;2.20;;;;;;;;;;102881;1303;22468;-86
2022/11/06 11:12:55;;;;;;;11.30;2.60;;;;;;;;;;103023;1311;22467;-79
2022/11/06 11:15:22;;;;;;;6.80;2.00;;;;;;;;;;103007;1311;22522;-83
2022/11/06 11:18:06;;;;;;;7.40;2.20;;;;;;;;;;103171;1310;23848;-79
2022/11/06 11:20:33;;;;;;;7.00;2.20;;;;;;;;;;103095;1312;25252;-83
2022/11/06 11:23:17;;;;;;;9.10;2.40;;;;;;;;;;102903;1313;24346;-79
2022/11/06 11:25:51;;;;;;;7.50;2.30;;;;;;;;;;102978;1313;24159;-81
2022/11/06 11:28:30;;;;;;;9.10;2.50;;;;;;;;;;102970;1313;25318;-79
2022/11/06 11:31:04;;;;;;;10.30;2.50;;;;;;;;;;102890;1310;22425;-80
2022/11/06 11:33:30;;;;;;;8.90;1.70;;;;;;;;;;102986;1311;22536;-82
2022/11/06 11:35:56;;;;;;;7.20;2.20;;;;;;;;;;102994;1310;22483;-83
2022/11/06 11:38:24;;;;;;;8.10;2.20;;;;;;;;;;103144;1310;22513;-84
2022/11/06 11:40:51;;;;;;;7.00;2.00;;;;;;;;;;102997;1305;22465;-85
2022/11/06 11:43:27;;;;;;;7.20;1.90;;;;;;;;;;103004;1312;24243;-82
2022/11/06 11:46:08;;;;;;;9.20;2.20;;;;;;;;;;103175;1310;25331;-83
2022/11/06 11:48:44;;;;;;;6.90;2.30;;;;;;;;;;103139;1312;22461;-86
2022/11/06 11:51:15;;;;;;;6.40;1.90;;;;;;;;;;102850;1313;22588;-84
2022/11/06 11:53:41;;;;;;;6.70;2.60;;;;;;;;;;102944;1313;22732;-81
2022/11/06 11:56:13;;;;;;;10.10;2.00;;;;;;;;;;103025;1313;21694;-78
2022/11/06 11:58:38;;;;;;;8.00;2.30;;;;;;;;;;102972;1313;26475;-77
2022/11/06 12:01:07;;;;;;;7.60;2.30;;;;;;;;;;102917;1307;22461;-80
2022/11/06 12:03:39;;;;;;;6.70;2.20;;;;;;;;;;103093;1310;22570;-80
2022/11/06 12:06:09;;;;;;;7.60;2.10;;;;;;;;;;103061;1313;25314;-83
2022/11/06 12:08:37;;;;;;;8.70;2.40;;;;;;;;;;103004;1310;22504;-84
2022/11/06 12:11:03;;;;;;;9.80;3.00;;;;;;;;;;102965;1313;22466;-78
2022/11/06 12:13:29;;;;;;;11.60;3.20;;;;;;;;;;102858;1294;22467;-78
2022/11/06 12:16:01;;;;;;;7.80;2.60;;;;;;;;;;103038;1294;22510;-79
2022/11/06 12:18:30;;;;;;;8.10;2.30;;;;;;;;;;103122;1302;22662;-81
2022/11/06 12:21:00;;;;;;;9.40;2.50;;;;;;;;;;102930;1313;25294;-78
2022/11/06 12:23:44;;;;;;;8.90;2.50;;;;;;;;;;102961;1304;22498;-79
2022/11/06 12:26:33;;;;;;;10.50;3.30;;;;;;;;;;102977;1288;24321;-83
2022/11/06 12:29:05;;;;;;;8.50;2.90;;;;;;;;;;102998;1296;22515;-80
2022/11/06 12:31:40;;;;;;;10.00;2.60;;;;;;;;;;102985;1298;24094;-80
2022/11/06 12:34:09;;;;;;;12.60;2.60;;;;;;;;;;102953;1313;24243;-79
2022/11/06 12:36:40;;;;;;;8.30;2.10;;;;;;;;;;102842;1313;22485;-83
2022/11/06 12:39:10;;;;;;;8.40;2.30;;;;;;;;;;102864;1313;26592;-83
2022/11/06 12:41:40;;;;;;;9.60;2.90;;;;;;;;;;102629;1314;24290;-82
2022/11/06 12:44:11;;;;;;;7.10;1.90;;;;;;;;;;103036;1313;23080;-84
2022/11/06 12:46:43;;;;;;;6.30;1.80;;;;;;;;;;102948;1312;22417;-80
2022/11/06 12:49:09;;;;;;;6.70;1.70;;;;;;;;;;103023;1310;24213;-79
2022/11/06 12:51:46;;;;;;;6.90;1.80;;;;;;;;;;102920;1303;22535;-83
2022/11/06 12:54:38;;;;;;;7.70;2.00;;;;;;;;;;103008;1299;23030;-86
2022/11/06 12:57:16;;;;;;;6.50;1.80;;;;;;;;;;102364;1322;22480;-79
2022/11/06 12:59:48;;;;;;;10.70;2.50;;;;;;;;;;102237;1304;22471;-82
2022/11/06 13:02:29;;;;;;;8.20;2.00;;;;;;;;;;103066;1291;25691;-80
2022/11/06 13:05:14;;;;;;;7.20;2.40;;;;;;;;;;103104;1288;22817;-84
2022/11/06 13:07:44;;;;;;;6.80;2.10;;;;;;;;;;103042;1295;22463;-79
2022/11/06 13:10:29;;;;;;;10.50;2.90;;;;;;;;;;103006;1287;24496;-79
2022/11/06 13:13:01;;;;;;;8.80;3.10;;;;;;;;;;102860;1291;25325;-82
2022/11/06 13:15:30;;;;;;;10.20;3.40;;;;;;;;;;102789;1290;25287;-77
2022/11/06 13:18:03;;;;;;;10.30;3.50;;;;;;;;;;106601;1308;22291;-79
2022/11/06 13:20:41;;;;;;;8.50;2.70;;;;;;;;;;106616;1306;22802;-78
2022/11/06 13:23:07;;;;;;;10.00;3.30;;;;;;;;;;106404;1313;22282;-79
2022/11/06 13:25:34;;;;;;;7.70;3.00;;;;;;;;;;106439;1298;22119;-79
2022/11/06 13:28:23;;;;;;;9.70;3.30;;;;;;;;;;106476;1310;22130;-78
2022/11/06 13:30:50;;;;;;;10.00;3.30;;;;;;;;;;106405;1291;22332;-77
2022/11/06 13:33:23;;;;;;;8.20;3.20;;;;;;;;;;106476;1311;22259;-77
2022/11/06 13:35:50;;;;;;;10.10;3.40;;;;;;;;;;106955;1304;22082;-78
2022/11/06 13:38:21;;;;;;;11.60;4.30;;;;;;;;;;106890;1304;22902;-78
2022/11/06 13:40:52;;;;;;;10.70;4.10;;;;;;;;;;107053;1304;22496;-78
2022/11/06 13:43:21;;;;;;;9.70;4.20;;;;;;;;;;106872;1307;22291;-78
2022/11/06 13:45:56;;;;;;;10.30;3.60;;;;;;;;;;106761;1306;22191;-77
2022/11/06 13:48:33;;;;;;;9.00;3.50;;;;;;;;;;106921;1307;22041;-78
2022/11/06 13:51:12;;;;;;;9.70;2.80;;;;;;;;;;106952;1305;22155;-77
2022/11/06 13:53:48;;;;;;;8.30;2.60;;;;;;;;;;106878;1299;22343;-77
2022/11/06 13:56:34;;;;;;;9.70;2.70;;;;;;;;;;106751;1306;22943;-77
2022/11/06 13:59:24;;;;;;;10.50;3.70;;;;;;;;;;106641;1306;22189;-79
2022/11/06 14:02:08;;;;;;;10.20;3.60;;;;;;;;;;106925;1306;22098;-77
2022/11/06 14:04:53;;;;;;;9.60;3.00;;;;;;;;;;107013;1304;21717;-77
2022/11/06 14:07:20;;;;;;;8.50;3.10;;;;;;;;;;106936;1304;22069;-77
2022/11/06 14:09:47;;;;;;;9.90;4.00;;;;;;;;;;107046;1304;22078;-77
2022/11/06 14:12:18;;;;;;;8.90;3.20;;;;;;;;;;107023;1307;22113;-77
2022/11/06 14:14:44;;;;;;;10.70;3.50;;;;;;;;;;106842;1307;22436;-77
2022/11/06 14:17:12;;;;;;;12.40;4.00;;;;;;;;;;107088;1305;21993;-77
2022/11/06 14:19:40;;;;;;;9.10;3.30;;;;;;;;;;106855;1307;21945;-77
2022/11/06 14:22:15;;;;;;;11.00;4.00;;;;;;;;;;106923;1306;21983;-77
2022/11/06 14:24:44;;;;;;;11.60;4.20;;;;;;;;;;106970;1306;22348;-77
2022/11/06 14:27:11;;;;;;;13.20;3.90;;;;;;;;;;106873;1307;21964;-78
2022/11/06 14:29:37;;;;;;;11.70;4.10;;;;;;;;;;106895;1307;22039;-77
2022/11/06 14:32:23;;;;;;;14.30;4.10;;;;;;;;;;106894;1307;22776;-77
2022/11/06 14:34:49;;;;;;;13.10;4.10;;;;;;;;;;106873;1305;22368;-77
2022/11/06 14:37:18;;;;;;;12.60;4.90;;;;;;;;;;106978;1305;22124;-77
2022/11/06 14:39:53;;;;;;;13.40;5.70;;;;;;;;;;106961;1298;22057;-76
2022/11/06 14:42:22;;;;;;;13.90;5.80;;;;;;;;;;106990;1306;22066;-77
2022/11/06 14:44:49;;;;;;;12.50;5.00;;;;;;;;;;106882;1295;22097;-77
2022/11/06 14:47:27;;;;;;;13.50;5.60;;;;;;;;;;106944;1305;21992;-77
2022/11/06 14:49:54;;;;;;;12.50;5.50;;;;;;;;;;106930;1299;22846;-77
2022/11/06 14:52:25;;;;;;;13.20;4.70;;;;;;;;;;106914;1307;22720;-77
2022/11/06 14:54:57;;;;;;;11.70;4.20;;;;;;;;;;106863;1306;22979;-77
2022/11/06 14:57:39;;;;;;;11.30;4.40;;;;;;;;;;106939;1306;22120;-77
2022/11/06 15:00:28;;;;;;;12.90;4.90;;;;;;;;;;106942;1298;22112;-77
2022/11/06 15:02:54;;;;;;;10.00;4.20;;;;;;;;;;106674;1310;22271;-77
2022/11/06 15:05:21;;;;;;;10.60;5.00;;;;;;;;;;106592;1304;22169;-77